Time;durP1;ratioP1;P1;durP2;ratioP2;P2;SDS_P1;SDS_P2;PMS_P1;PMS_P2;Temp;Humidity;BMP_temperature;BMP_pressure;BME280_temperature;BME280_humidity;BME280_pressure;Samples;Min_cycle;Max_cycle;Signal;HPM_P1;HPM_P2
2020/12/20 19:24:42;;;;;;;728.85;374.55;;;9.50;99.90;;;;;;5120073;27;20393;-71
2020/12/20 19:27:08;;;;;;;925.47;480.52;;;9.30;99.90;;;;;;5089271;28;20035;-76
2020/12/20 19:29:34;;;;;;;833.03;513.45;;;8.60;99.90;;;;;;5088257;28;20033;-76
2020/12/20 19:32:00;;;;;;;744.70;446.38;;;7.80;99.90;;;;;;5089123;28;20016;-75
2020/12/20 19:34:27;;;;;;;684.65;384.98;;;7.10;99.90;;;;;;5088716;28;20375;-74
2020/12/20 19:36:53;;;;;;;587.00;334.48;;;6.60;99.90;;;;;;5088823;28;20029;-75
2020/12/20 19:39:21;;;;;;;561.85;312.17;;;6.20;99.90;;;;;;5088591;28;20039;-75
2020/12/20 19:41:47;;;;;;;543.78;299.45;;;5.90;99.90;;;;;;5088554;28;20134;-75
2020/12/20 19:44:15;;;;;;;545.80;310.23;;;5.70;99.90;;;;;;5088586;28;20021;-75
2020/12/20 19:46:41;;;;;;;549.30;318.38;;;5.50;99.90;;;;;;5088774;28;20020;-75
2020/12/20 19:49:08;;;;;;;557.45;326.05;;;5.40;99.90;;;;;;5087332;28;20032;-75
2020/12/20 19:51:36;;;;;;;605.25;353.77;;;5.30;99.90;;;;;;5088275;28;20483;-75
2020/12/20 19:54:05;;;;;;;702.17;446.85;;;5.20;99.90;;;;;;5088437;28;20024;-75
2020/12/20 19:56:33;;;;;;;780.72;517.42;;;5.20;99.90;;;;;;5088448;28;20024;-75
2020/12/20 19:58:59;;;;;;;1007.78;666.88;;;5.10;99.90;;;;;;5088652;28;20103;-74
2020/12/20 20:01:25;;;;;;;1086.50;729.83;;;5.10;99.90;;;;;;5088438;28;20085;-75
2020/12/20 20:03:53;;;;;;;904.20;622.47;;;5.10;99.90;;;;;;5088369;28;20423;-75
2020/12/20 20:06:23;;;;;;;736.30;513.67;;;5.00;99.90;;;;;;5088392;28;20491;-76
2020/12/20 20:08:50;;;;;;;626.10;413.35;;;5.00;99.90;;;;;;5086329;28;20035;-76
2020/12/20 20:11:20;;;;;;;612.92;395.35;;;5.00;99.90;;;;;;5086739;28;20502;-75
2020/12/20 20:13:46;;;;;;;555.33;353.73;;;5.00;99.90;;;;;;5087965;28;20033;-75
2020/12/20 20:16:14;;;;;;;546.35;345.98;;;5.00;99.90;;;;;;5088176;28;20392;-75
2020/12/20 20:18:39;;;;;;;539.70;355.27;;;5.00;99.90;;;;;;5087580;28;20029;-75
2020/12/20 20:21:05;;;;;;;542.58;347.60;;;5.00;99.90;;;;;;5087652;28;20088;-75
2020/12/20 20:23:31;;;;;;;478.45;282.75;;;5.00;99.90;;;;;;5087222;28;20075;-75
2020/12/20 20:25:57;;;;;;;429.15;251.25;;;5.00;99.90;;;;;;5087637;28;20026;-74
2020/12/20 20:28:23;;;;;;;426.52;241.60;;;5.00;99.90;;;;;;5087625;28;20024;-75
2020/12/20 20:30:49;;;;;;;430.70;233.75;;;5.00;99.90;;;;;;5087597;28;20029;-75
2020/12/20 20:33:14;;;;;;;379.83;214.48;;;5.00;99.90;;;;;;5087620;28;20020;-75
2020/12/20 20:35:40;;;;;;;395.40;214.68;;;5.00;99.90;;;;;;5075311;28;20028;-75
2020/12/20 20:38:06;;;;;;;454.00;272.88;;;5.10;99.90;;;;;;5073062;28;20126;-74
2020/12/20 20:40:33;;;;;;;411.13;243.55;;;5.00;99.90;;;;;;5073991;28;20505;-75
2020/12/20 20:42:59;;;;;;;384.55;207.90;;;5.00;99.90;;;;;;5073544;28;20024;-75
2020/12/20 20:45:25;;;;;;;380.33;208.57;;;5.00;99.90;;;;;;5073164;28;20031;-75
2020/12/20 20:47:51;;;;;;;369.52;196.70;;;5.10;99.90;;;;;;5073398;28;20021;-76
2020/12/20 20:50:18;;;;;;;342.95;189.02;;;5.00;99.90;;;;;;5073678;28;20023;-75
2020/12/20 20:52:44;;;;;;;332.50;180.45;;;5.00;99.90;;;;;;5072535;28;20111;-76
2020/12/20 20:55:10;;;;;;;315.42;156.20;;;5.00;99.90;;;;;;5072943;28;20470;-76
2020/12/20 20:57:36;;;;;;;323.45;165.73;;;5.00;99.90;;;;;;5072458;28;20467;-76
2020/12/20 21:00:05;;;;;;;352.50;186.45;;;5.00;99.90;;;;;;5072914;28;20408;-76
2020/12/20 21:02:31;;;;;;;313.23;166.32;;;5.10;99.90;;;;;;5069145;28;20036;-76
2020/12/20 21:04:57;;;;;;;322.10;169.35;;;5.10;99.90;;;;;;5073578;28;20023;-76
2020/12/20 21:07:23;;;;;;;327.38;171.23;;;5.00;99.90;;;;;;5072980;28;20108;-76
2020/12/20 21:09:49;;;;;;;303.85;155.13;;;5.00;99.90;;;;;;5071790;28;20036;-74
2020/12/20 21:12:15;;;;;;;297.58;156.32;;;5.00;99.90;;;;;;5072385;28;20125;-77
2020/12/20 21:14:41;;;;;;;291.13;153.00;;;5.00;99.90;;;;;;5071888;28;20021;-74
2020/12/20 21:17:08;;;;;;;280.08;144.90;;;5.10;99.90;;;;;;5072001;28;20028;-75
2020/12/20 21:19:34;;;;;;;304.45;149.57;;;5.00;99.90;;;;;;5072236;28;20025;-75
2020/12/20 21:22:06;;;;;;;295.33;142.32;;;5.00;99.90;;;;;;5072321;28;20523;-74
2020/12/20 21:24:32;;;;;;;299.35;142.30;;;5.00;99.90;;;;;;5073261;28;20030;-75
2020/12/20 21:26:59;;;;;;;285.30;137.90;;;5.00;99.90;;;;;;5073213;28;20548;-74
2020/12/20 21:29:25;;;;;;;281.55;133.32;;;4.90;99.90;;;;;;5072758;28;20112;-75
2020/12/20 21:31:53;;;;;;;314.40;141.05;;;5.00;99.90;;;;;;5073014;28;20483;-74
2020/12/20 21:34:19;;;;;;;308.58;133.00;;;5.00;99.90;;;;;;5073237;28;20398;-75
2020/12/20 21:36:45;;;;;;;272.25;124.03;;;4.90;99.90;;;;;;5073311;28;20048;-75
2020/12/20 21:39:11;;;;;;;241.15;116.20;;;4.90;99.90;;;;;;5073308;28;20429;-76
2020/12/20 21:41:37;;;;;;;282.00;128.65;;;4.90;99.90;;;;;;5073074;28;20094;-75
2020/12/20 21:44:03;;;;;;;250.02;116.00;;;4.90;99.90;;;;;;5071364;28;20531;-75
2020/12/20 21:46:28;;;;;;;279.52;128.65;;;4.90;99.90;;;;;;5071901;28;20032;-75
2020/12/20 21:48:54;;;;;;;284.63;132.35;;;4.90;99.90;;;;;;5072915;28;20033;-75
2020/12/20 21:51:21;;;;;;;259.08;124.32;;;4.90;99.90;;;;;;5071455;28;20021;-75
2020/12/20 21:53:47;;;;;;;266.90;132.52;;;4.90;99.90;;;;;;5071122;28;20025;-75
2020/12/20 21:56:14;;;;;;;213.30;110.28;;;4.90;99.90;;;;;;5072544;28;20112;-75
2020/12/20 21:58:40;;;;;;;218.90;117.50;;;4.90;99.90;;;;;;5071433;28;20033;-75
2020/12/20 22:01:06;;;;;;;209.93;114.35;;;4.80;99.90;;;;;;5070740;28;20475;-75
2020/12/20 22:03:32;;;;;;;209.43;109.25;;;4.80;99.90;;;;;;5072526;28;20059;-76
2020/12/20 22:05:58;;;;;;;193.18;105.50;;;4.80;99.90;;;;;;5072834;28;20475;-75
2020/12/20 22:08:23;;;;;;;190.20;97.63;;;4.80;99.90;;;;;;5072631;28;20788;-75
2020/12/20 22:10:49;;;;;;;196.90;99.18;;;4.80;99.90;;;;;;5072158;28;20085;-75
2020/12/20 22:13:15;;;;;;;189.93;95.60;;;4.80;99.90;;;;;;5072564;28;20150;-75
2020/12/20 22:15:44;;;;;;;183.23;89.82;;;4.80;99.90;;;;;;5072318;28;20039;-75
2020/12/20 22:18:10;;;;;;;185.48;95.90;;;4.80;99.90;;;;;;5072264;28;20036;-75
2020/12/20 22:20:35;;;;;;;178.93;93.75;;;4.80;99.90;;;;;;5072070;28;20474;-75
2020/12/20 22:23:01;;;;;;;179.80;91.78;;;4.80;99.90;;;;;;5071499;28;20053;-75
2020/12/20 22:25:27;;;;;;;185.10;93.22;;;4.80;99.90;;;;;;5071807;28;20024;-75
2020/12/20 22:27:53;;;;;;;202.48;101.20;;;4.80;99.90;;;;;;5072059;28;20062;-75
2020/12/20 22:30:19;;;;;;;175.45;93.85;;;4.80;99.90;;;;;;5072102;28;20012;-75
2020/12/20 22:32:45;;;;;;;169.15;83.40;;;4.80;99.90;;;;;;5070638;28;20486;-75
2020/12/20 22:35:11;;;;;;;169.40;86.85;;;4.80;99.90;;;;;;5071969;28;20028;-75
2020/12/20 22:37:36;;;;;;;171.27;86.00;;;4.80;99.90;;;;;;5071860;28;20040;-75
2020/12/20 22:40:03;;;;;;;174.57;85.93;;;4.80;99.90;;;;;;5071924;28;20031;-77
2020/12/20 22:42:30;;;;;;;168.00;83.20;;;4.80;99.90;;;;;;5072235;28;20489;-75
2020/12/20 22:44:57;;;;;;;168.80;88.38;;;4.80;99.90;;;;;;5070750;28;20033;-74
2020/12/20 22:47:23;;;;;;;170.05;85.03;;;4.80;99.90;;;;;;5071712;28;20028;-75
2020/12/20 22:49:50;;;;;;;182.40;94.32;;;4.90;99.90;;;;;;5071069;28;20360;-75
2020/12/20 22:52:17;;;;;;;202.00;99.72;;;4.90;99.90;;;;;;5071054;28;20024;-74
2020/12/20 22:54:43;;;;;;;200.70;102.40;;;4.80;99.90;;;;;;5071286;28;20107;-74
2020/12/20 22:57:09;;;;;;;215.32;106.78;;;4.80;99.90;;;;;;5071246;28;20675;-74
2020/12/20 22:59:35;;;;;;;211.95;107.28;;;4.80;99.90;;;;;;5070135;28;20032;-74
2020/12/20 23:02:01;;;;;;;210.75;106.05;;;4.80;99.90;;;;;;5071089;28;20036;-74
2020/12/20 23:04:27;;;;;;;230.77;114.90;;;4.80;99.90;;;;;;5071189;28;20078;-74
2020/12/20 23:06:55;;;;;;;207.45;103.57;;;4.80;99.90;;;;;;5071214;28;20025;-75
2020/12/20 23:09:21;;;;;;;238.52;115.95;;;4.80;99.90;;;;;;5071197;28;20491;-75
2020/12/20 23:11:47;;;;;;;224.32;110.32;;;4.80;99.90;;;;;;5070978;28;20020;-74
2020/12/20 23:14:12;;;;;;;213.65;106.43;;;4.80;99.90;;;;;;5071191;28;20029;-75
2020/12/20 23:16:38;;;;;;;205.00;106.95;;;4.80;99.90;;;;;;5071274;28;20027;-75
2020/12/20 23:19:04;;;;;;;207.63;110.15;;;4.80;99.90;;;;;;5070917;28;20141;-75
2020/12/20 23:21:30;;;;;;;216.10;112.82;;;4.80;99.90;;;;;;5070809;28;20479;-75
2020/12/20 23:23:56;;;;;;;208.95;110.90;;;4.80;99.90;;;;;;5070656;28;20048;-75
2020/12/20 23:26:21;;;;;;;213.10;110.50;;;4.80;99.90;;;;;;5071115;28;20043;-75
2020/12/20 23:28:47;;;;;;;180.80;92.82;;;4.80;99.90;;;;;;5071085;28;20052;-74
2020/12/20 23:31:16;;;;;;;167.18;89.20;;;4.70;99.90;;;;;;5071045;28;20096;-74
2020/12/20 23:33:43;;;;;;;179.90;89.45;;;4.80;99.90;;;;;;5070942;28;20508;-74
2020/12/20 23:36:10;;;;;;;257.60;117.05;;;4.80;99.90;;;;;;5070894;28;20031;-75
2020/12/20 23:38:38;;;;;;;280.70;134.93;;;4.80;99.90;;;;;;5069492;28;20391;-74
2020/12/20 23:41:04;;;;;;;270.02;132.38;;;4.80;99.90;;;;;;5069194;28;20025;-74
2020/12/20 23:43:30;;;;;;;269.15;128.68;;;4.80;99.90;;;;;;5069221;28;20042;-74
2020/12/20 23:45:56;;;;;;;292.23;139.13;;;4.80;99.90;;;;;;5069764;28;20452;-74
2020/12/20 23:48:22;;;;;;;287.15;135.68;;;4.80;99.90;;;;;;5069604;28;20074;-74
2020/12/20 23:50:48;;;;;;;289.02;141.43;;;4.80;99.90;;;;;;5069218;28;20058;-74
2020/12/20 23:53:14;;;;;;;248.52;119.40;;;4.80;99.90;;;;;;5068867;28;20029;-74
2020/12/20 23:55:40;;;;;;;201.05;101.43;;;4.80;99.90;;;;;;5068239;28;20040;-74
2020/12/20 23:58:06;;;;;;;165.90;80.78;;;4.80;99.90;;;;;;5067780;28;20029;-74
